Cherokee Falls, South Carolina
Current Conditions -  °F | °C
As of 5:15 PM on Sunday 25 Jan 2015 (Local Time) from KEHO Reporting Station
Clear Clear  
Wind Chill: 13°   Ceiling: Unl
Heat Index: 13°   Visibility: 10mi
Dew Point: -4°   Wind: 9mph
Humidity: 31%   Direction: 190°S
Pressure: 29.76"   Gusts: 16mph
Location:  35.1147°N, 81.4908°W
Report Text: KEHO 252215Z AUTO 19008G14KT 10SM CLR 13/M04 A2976 RMK AO2 T01291038
Loading
Personal Weather Stations






























Interactive Weather Map New forecast layout! Learn more

10-Day Weather Forecast

Advertisements
Track Severe Weather on mobile